DW8626 Madrid ES current weather conditions

sailwx.info

Wind from 030 at 4 knots gusting 9

Air temperature 8.3° C
Dewpoint 1.3° C

Last reported at 2017-Feb-21 00:46 UTC.
Time now 2017-Feb-21 01:10 UTC

Location: N 40°29' W 003°43'.
View on Google Maps.

See reports from other nearby stations

  
Tides and Currents Weather Stations Pressure Air Temp Water Temp Dewpoint Dewpoint Depression Visibility Wind Speed Wind Dir Waves Ship Positions
date/time (UTC)wind fromknots sea level pressurealtimeterstation pressurevisibilityair tempwater tempwave heightnotes
2017-Feb-21 00:46 030 4 gusting 9 8.3
2017-Feb-21 00:31 066 1 gusting 5 8.3
2017-Feb-21 00:17 065 2 gusting 7 8.3
2017-Feb-21 00:01 068 8.3
2017-Feb-20 23:46 110 0 gusting 5 8.3
2017-Feb-20 23:31 084 2 gusting 6 8.3
2017-Feb-20 23:16 060 3 gusting 11 8.3
2017-Feb-20 23:02 152 3 gusting 6 8.9
2017-Feb-20 22:47 113 5 gusting 12 9.4
2017-Feb-20 22:32 048 4 gusting 10 9.4
2017-Feb-20 22:02 079 8 gusting 13 10.0
2017-Feb-20 21:47 030 6 gusting 13 10.6
2017-Feb-20 21:32 046 8 gusting 12 10.6
2017-Feb-20 21:17 039 7 gusting 13 10.6
2017-Feb-20 21:02 033 8 gusting 13 10.6
2017-Feb-20 20:47 034 6 gusting 10 11.1
2017-Feb-20 20:33 043 5 gusting 8 11.1
2017-Feb-20 20:17 027 3 gusting 6 11.7
2017-Feb-20 19:59 015 11.1
2017-Feb-20 19:44 019 3 gusting 3 11.7
2017-Feb-20 19:29 026 11.7
2017-Feb-20 19:14 347 12.2
2017-Feb-20 18:59 020 12.2
2017-Feb-20 18:44 019 12.2
2017-Feb-20 18:29 013 12.2
2017-Feb-20 18:14 349 12.8
2017-Feb-20 17:59 041 13.3
2017-Feb-20 17:45 030 0 gusting 3 13.3
2017-Feb-20 17:30 039 3 gusting 5 13.3
2017-Feb-20 17:15 025 0 gusting 5 13.9
2017-Feb-20 16:58 032 1 gusting 6 13.9
2017-Feb-20 16:29 049 13.9
2017-Feb-20 16:14 134 13.9
2017-Feb-20 15:59 122 13.9
2017-Feb-20 15:44 085 13.9
2017-Feb-20 15:29 124 0 gusting 9 13.3
2017-Feb-20 15:14 005 13.3
2017-Feb-20 14:59 124 12.8
2017-Feb-20 14:44 098 12.8
2017-Feb-20 14:29 086 0 gusting 6 12.8
2017-Feb-20 14:14 091 2 gusting 6 12.8
2017-Feb-20 13:59 019 0 gusting 5 12.8
2017-Feb-20 13:44 061 0 gusting 6 12.8
2017-Feb-20 13:29 049 12.8
2017-Feb-20 13:14 098 12.2
2017-Feb-20 12:59 011 1 gusting 5 12.8
2017-Feb-20 12:44 132 12.2
2017-Feb-20 12:29 089 11.7
2017-Feb-20 12:14 081 0 gusting 6 11.7
2017-Feb-20 11:59 170 11.1
2017-Feb-20 11:44 086 10.6
2017-Feb-20 11:29 104 11.1
2017-Feb-20 11:15 091 10.0
2017-Feb-20 10:59 068 2 gusting 10 9.4
2017-Feb-20 10:45 023 1 gusting 9 9.4
2017-Feb-20 10:30 145 0 gusting 6 9.4
2017-Feb-20 10:15 043 4 gusting 9 8.9
2017-Feb-20 09:59 120 1 gusting 7 8.9
2017-Feb-20 09:44 078 0 gusting 7 8.3
2017-Feb-20 09:29 019 3 gusting 7 7.8
2017-Feb-20 09:14 021 6 gusting 10 7.2
2017-Feb-20 08:59 094 1 gusting 5 7.2
2017-Feb-20 08:44 095 6.7
2017-Feb-20 08:29 004 4 gusting 10 6.1
2017-Feb-20 08:14 046 8 gusting 14 5.6
2017-Feb-20 07:59 030 10 gusting 15 5.6
2017-Feb-20 07:44 058 6 gusting 13 5.6
2017-Feb-20 07:29 044 8 gusting 12 5.0
2017-Feb-20 07:14 046 6 gusting 12 5.0
2017-Feb-20 06:59 058 4 gusting 9 5.0
2017-Feb-20 06:44 039 7 gusting 10 5.6
2017-Feb-20 06:29 032 0 gusting 6 5.6
2017-Feb-20 06:14 026 2 gusting 7 5.6
2017-Feb-20 05:59 036 1 gusting 8 5.6
2017-Feb-20 05:44 019 3 gusting 8 5.6
2017-Feb-20 05:29 032 2 gusting 6 5.6
2017-Feb-20 05:14 043 3 gusting 6 5.6
2017-Feb-20 05:00 010 4 gusting 8 5.6
2017-Feb-20 04:44 046 6 gusting 10 6.1
2017-Feb-20 04:30 044 1 gusting 7 6.1
2017-Feb-20 04:15 060 6.1
2017-Feb-20 03:59 075 4 gusting 8 6.1
2017-Feb-20 03:44 058 6 gusting 8 6.1
2017-Feb-20 03:29 014 1 gusting 5 6.7
2017-Feb-20 03:14 022 1 gusting 6 6.7
2017-Feb-20 02:59 039 5 gusting 8 6.7
2017-Feb-20 02:44 046 3 gusting 6 6.7
2017-Feb-20 02:29 028 3 gusting 6 6.7
2017-Feb-20 02:14 019 6.7
2017-Feb-20 01:59 039 2 gusting 7 7.2
2017-Feb-20 01:44 032 2 gusting 9 6.7
2017-Feb-20 01:29 053 6 gusting 9 6.7
2017-Feb-20 01:14 026 1 gusting 6 6.7
2017-Feb-20 00:59 054 3 gusting 5 6.7
2017-Feb-20 00:44 026 4 gusting 5 7.2
2017-Feb-20 00:29 045 0 gusting 3 7.8
2017-Feb-20 00:14 058 8.3
2017-Feb-19 23:59 012 7.8
2017-Feb-19 23:44 011 8.3
2017-Feb-19 23:29 011 8.3
2017-Feb-19 23:15 009 8.3
2017-Feb-19 22:59 036 8.9
2017-Feb-19 22:45 093 8.9
2017-Feb-19 22:30 111 9.4
2017-Feb-19 22:14 074 9.4
2017-Feb-19 21:59 107 9.4
2017-Feb-19 21:29 032 2 gusting 5 10.0
2017-Feb-19 21:14 093 1 gusting 6 10.0
2017-Feb-19 20:59 103 10.6
2017-Feb-19 20:44 089 0 gusting 10 10.6
2017-Feb-19 20:29 037 6 gusting 9 10.6
2017-Feb-19 20:14 039 2 gusting 8 10.6
2017-Feb-19 19:59 020 8 gusting 13 11.1
2017-Feb-19 19:44 019 6 gusting 12 11.1
2017-Feb-19 19:29 064 2 gusting 15 11.7
2017-Feb-19 19:14 027 6 gusting 13 12.2
2017-Feb-19 18:59 060 7 gusting 14 12.2
2017-Feb-19 18:44 049 8 gusting 14 12.2
2017-Feb-19 18:29 054 6 gusting 8 12.2
2017-Feb-19 18:14 035 3 gusting 7 12.8
2017-Feb-19 17:59 027 3 gusting 10 13.3
2017-Feb-19 17:44 023 1 gusting 6 13.3
2017-Feb-19 17:29 028 13.9
2017-Feb-19 17:15 051 1 gusting 6 13.9
2017-Feb-19 17:00 023 6 gusting 7 13.9
2017-Feb-19 16:45 016 5 gusting 8 13.9
2017-Feb-19 16:29 358 0 gusting 10 13.3
2017-Feb-19 16:15 053 0 gusting 9 13.3
2017-Feb-19 16:13 059 0 gusting 9 13.3
2017-Feb-19 15:59 043 6 gusting 13 12.8
2017-Feb-19 15:44 091 1 gusting 6 13.3
2017-Feb-19 15:29 082 4 gusting 12 12.8
2017-Feb-19 15:14 044 4 gusting 13 12.8
2017-Feb-19 14:59 025 7 gusting 13 12.2
2017-Feb-19 14:44 036 3 gusting 9 12.8
2017-Feb-19 14:29 304 12.2
2017-Feb-19 14:14 340 12.2
2017-Feb-19 13:59 190 11.7
2017-Feb-19 13:44 153 11.7
2017-Feb-19 13:29 055 6 gusting 8 11.1
2017-Feb-19 13:14 052 5 gusting 11 11.1
2017-Feb-19 12:59 024 3 gusting 8 11.1
2017-Feb-19 12:44 342 6 gusting 12 10.6
2017-Feb-19 12:29 046 6 gusting 10 10.6
2017-Feb-19 12:14 303 10.6
2017-Feb-19 11:59 037 4 gusting 11 10.0
2017-Feb-19 11:45 028 1 gusting 11 10.0
2017-Feb-19 11:29 008 6 gusting 10 9.4
2017-Feb-19 11:14 046 6 gusting 15 8.9
2017-Feb-19 11:00 023 11 gusting 15 8.9
2017-Feb-19 10:44 065 8 gusting 13 8.3
2017-Feb-19 10:30 048 10 gusting 16 8.3
2017-Feb-19 10:13 019 7 gusting 14 8.3
2017-Feb-19 09:59 042 10 gusting 16 7.8
2017-Feb-19 09:44 027 7 gusting 16 7.8
2017-Feb-19 09:29 111 6 gusting 16 7.8
2017-Feb-19 09:14 058 3 gusting 12 7.2
2017-Feb-19 08:59 359 8 gusting 12 7.2
2017-Feb-19 08:44 027 8 gusting 16 6.7
2017-Feb-19 08:29 043 6 gusting 12 6.7
2017-Feb-19 08:14 064 6 gusting 13 6.7
2017-Feb-19 07:59 082 6 gusting 14 6.7
2017-Feb-19 07:44 035 9 gusting 15 7.2
2017-Feb-19 07:29 078 3 gusting 11 7.2
2017-Feb-19 07:14 075 4 gusting 14 7.2
2017-Feb-19 06:59 063 6 gusting 13 7.2
2017-Feb-19 06:44 020 8 gusting 12 7.2
2017-Feb-19 06:29 004 4 gusting 8 6.7
2017-Feb-19 06:14 021 6 gusting 7 6.7
2017-Feb-19 05:59 030 5 gusting 8 7.2
2017-Feb-19 05:44 039 7 gusting 12 7.2
2017-Feb-19 05:30 036 6 gusting 10 7.2
2017-Feb-19 05:14 039 5 gusting 10 7.2
2017-Feb-19 05:00 036 6 gusting 9 7.8
2017-Feb-19 04:44 044 7.8
2017-Feb-19 04:30 036 6 gusting 7 7.8
2017-Feb-19 04:14 036 3 gusting 6 8.3
2017-Feb-19 03:59 068 1 gusting 6 8.3
2017-Feb-19 03:44 079 0 gusting 5 8.3
2017-Feb-19 03:29 078 0 gusting 2 8.3
2017-Feb-19 03:14 155 1 gusting 6 8.3
2017-Feb-19 02:59 071 0 gusting 6 8.3
2017-Feb-19 02:44 072 8.3
2017-Feb-19 02:29 108 0 gusting 5 8.3
2017-Feb-19 02:14 107 2 gusting 6 8.3
2017-Feb-19 01:59 044 1 gusting 6 8.3
2017-Feb-19 01:44 053 8.3
2017-Feb-19 01:29 051 6 gusting 7 7.8
2017-Feb-19 01:14 031 4 gusting 5 7.8